Meteorological Aerodrome Report (METAR)

METAR

Data at: 1800 UTC 20 Oct 2020

METAR for:NVSC (Sola/Vanua Lava Arpt, TO, NV)
Text:No data found

METAR

Data at: 1800 UTC 20 Oct 2020

METAR for:NVSG (Longana Arpt, PA, NV)
Text:No data found

METAR

Data at: 1800 UTC 20 Oct 2020

METAR for:NVSS (Santo/Pekoa Intl, SA, NV)
Text:NVSS 201500Z 00000KT 9999 SCT018 BKN040 24/23 Q1010
Temperature: 24.0°C ( 75°F)
Dewpoint: 23.0°C ( 73°F) [RH = 94%]
Pressure (altimeter):29.82 inches Hg (1010.0 mb)
Winds:calm
Visibility:6 or more sm (10+ km)
Ceiling:4000 feet AGL
Clouds: scattered clouds at 1800 feet AGL, broken clouds at 4000 feet AGL

METAR

Data at: 1800 UTC 20 Oct 2020

METAR for:NVSL (Malekula Isl/Lamap, MA, NV)
Text:No data found

METAR

Data at: 1800 UTC 20 Oct 2020

METAR for:NVSP (Norsup Arpt, MA, NV)
Text:No data found

METAR

Data at: 1800 UTC 20 Oct 2020

METAR for:NVVV (Efate/Bauerfield Int, SE, NV)
Text:NVVV 201700Z 00000KT 9999 FEW020 SCT300 22/21 Q1011
Temperature: 22.0°C ( 72°F)
Dewpoint: 21.0°C ( 70°F) [RH = 94%]
Pressure (altimeter):29.85 inches Hg (1011.0 mb)
Winds:calm
Visibility:6 or more sm (10+ km)
Ceiling:at least 12,000 feet AGL
Clouds: few clouds at 2000 feet AGL, scattered clouds at 30000 feet AGL

METAR

Data at: 1800 UTC 20 Oct 2020

METAR for:NVVW (Tanna Arpt, TA, NV)
Text:No data found

METAR

Data at: 1800 UTC 20 Oct 2020

METAR for:NVVA (Aneityum/Mystery Isl, TA, NV)
Text:No data found

METAR

Data at: 1800 UTC 20 Oct 2020

NVVV 201700Z 00000KT 9999 FEW020 SCT300 22/21 Q1011
No Data available for NVSC
No Data available for NVSG
NVSS 201500Z 00000KT 9999 SCT018 BKN040 24/23 Q1010
No Data available for NVSL
No Data available for NVSP
No Data available for NVVW
No Data available for NVVA